Time;durP1;ratioP1;P1;durP2;ratioP2;P2;SDS_P1;SDS_P2;PMS_P1;PMS_P2;Temp;Humidity;BMP_temperature;BMP_pressure;BME280_temperature;BME280_humidity;BME280_pressure;Samples;Min_cycle;Max_cycle;Signal;HPM_P1;HPM_P2
2021/10/07 00:00:37;;;;;;;14.52;9.93;;;;;;;12.17;77.02;100666.09;5016698;28;20127;-63
2021/10/07 00:03:21;;;;;;;12.85;9.82;;;;;;;12.18;77.10;100670.44;5016176;28;20116;-63
2021/10/07 00:06:14;;;;;;;13.55;9.40;;;;;;;12.18;76.88;100675.63;5015259;28;20048;-63
2021/10/07 00:09:06;;;;;;;11.70;9.07;;;;;;;12.20;77.08;100682.59;5015434;28;20052;-63
2021/10/07 00:11:56;;;;;;;12.15;9.63;;;;;;;12.18;76.78;100683.44;5015408;28;20045;-64
2021/10/07 00:14:49;;;;;;;10.32;9.20;;;;;;;12.18;76.95;100680.84;5015178;28;20061;-64
2021/10/07 00:17:44;;;;;;;12.05;9.38;;;;;;;12.17;76.94;100684.28;5015925;28;20375;-63
2021/10/07 00:20:31;;;;;;;10.02;8.98;;;;;;;12.18;76.75;100686.03;5016353;28;20100;-64
2021/10/07 00:23:25;;;;;;;12.70;9.00;;;;;;;12.18;77.35;100686.03;5014710;28;20567;-63
2021/10/07 00:26:17;;;;;;;11.98;8.65;;;;;;;12.19;77.08;100686.91;5015229;28;20044;-63
2021/10/07 00:32:27;;;;;;;9.48;8.45;;;;;;;12.20;77.24;100690.38;5010090;28;20417;-64
2021/10/07 00:35:35;;;;;;;12.35;9.48;;;;;;;12.20;77.00;100685.19;5015006;28;20049;-63
2021/10/07 00:41:40;;;;;;;11.57;8.93;;;;;;;12.20;77.23;100688.66;5015732;28;20052;-63
2021/10/07 00:44:30;;;;;;;13.30;8.15;;;;;;;12.20;77.11;100701.63;5014386;28;20129;-64
2021/10/07 00:47:16;;;;;;;10.82;8.23;;;;;;;12.21;76.98;100689.53;5014952;28;20423;-64
2021/10/07 00:50:03;;;;;;;12.73;8.70;;;;;;;12.20;76.99;100698.19;5015560;28;20076;-64
2021/10/07 00:52:49;;;;;;;14.13;8.63;;;;;;;12.21;77.18;100689.53;5015024;28;20084;-63
2021/10/07 00:55:35;;;;;;;11.93;8.70;;;;;;;12.20;77.36;100693.84;5015184;28;20069;-63
2021/10/07 00:58:19;;;;;;;13.95;9.27;;;;;;;12.22;77.12;100701.69;5014591;28;20523;-63
2021/10/07 01:01:06;;;;;;;12.13;9.13;;;;;;;12.22;77.13;100702.56;5015183;28;20123;-64
2021/10/07 01:03:53;;;;;;;11.05;9.02;;;;;;;12.22;76.79;100697.34;5015259;28;20088;-64
2021/10/07 01:06:43;;;;;;;11.77;8.20;;;;;;;12.22;77.22;100701.69;5015315;28;20108;-63
2021/10/07 01:09:31;;;;;;;12.07;9.40;;;;;;;12.22;77.10;100692.16;5014336;28;20080;-64
2021/10/07 01:12:15;;;;;;;12.50;9.00;;;;;;;12.22;77.10;100702.56;5013977;28;20127;-64
2021/10/07 01:14:59;;;;;;;11.60;9.07;;;;;;;12.22;77.19;100692.16;5015126;28;20049;-64
2021/10/07 01:17:46;;;;;;;;;;;;;;;12.21;77.14;100689.53;5014670;28;20500;-64
2021/10/07 01:20:30;;;;;;;10.73;8.93;;;;;;;12.20;77.08;100690.38;5014189;28;19971;-64
2021/10/07 01:23:22;;;;;;;14.27;9.15;;;;;;;12.21;77.50;100694.75;5014624;28;20121;-64
2021/10/07 01:26:13;;;;;;;12.77;9.23;;;;;;;12.21;77.50;100705.13;5014074;28;20053;-64
2021/10/07 01:29:02;;;;;;;11.55;9.88;;;;;;;12.22;77.23;100696.50;5013362;28;20052;-64
2021/10/07 01:31:46;;;;;;;12.73;9.68;;;;;;;12.22;77.25;100697.34;5014524;28;20056;-64
2021/10/07 01:34:31;;;;;;;;;;;;;;;12.21;77.47;100702.53;5014694;28;20113;-63
2021/10/07 01:37:18;;;;;;;12.05;9.68;;;;;;;12.20;77.49;100709.44;5013925;28;19924;-64
2021/10/07 01:40:11;;;;;;;15.68;10.52;;;;;;;12.20;77.11;100709.44;5014128;28;20637;-64
2021/10/07 01:43:00;;;;;;;13.65;10.32;;;;;;;12.22;77.06;100704.28;5013482;28;20060;-64
2021/10/07 01:45:55;;;;;;;14.23;10.48;;;;;;;12.22;77.22;100709.50;5013449;28;20436;-64
2021/10/07 01:48:47;;;;;;;12.98;9.65;;;;;;;12.22;77.34;100712.09;5013421;28;20072;-64
2021/10/07 01:51:31;;;;;;;12.82;10.73;;;;;;;12.23;77.60;100711.22;5013645;28;20185;-63
2021/10/07 01:54:16;;;;;;;13.05;10.23;;;;;;;12.22;77.66;100710.34;5014300;28;20052;-64
2021/10/07 01:57:12;;;;;;;11.88;10.00;;;;;;;12.22;77.40;100710.34;5014308;28;20049;-64
2021/10/07 01:59:58;;;;;;;13.98;10.07;;;;;;;12.22;77.30;100710.34;5013546;28;20105;-64
2021/10/07 02:02:42;;;;;;;14.07;9.23;;;;;;;12.23;77.14;100706.00;5013175;28;20137;-64
2021/10/07 02:05:27;;;;;;;12.63;9.43;;;;;;;12.23;77.45;100716.41;5014437;28;20437;-63
2021/10/07 02:08:11;;;;;;;12.57;9.00;;;;;;;12.22;77.21;100710.34;5013889;28;20474;-64
2021/10/07 02:11:01;;;;;;;11.70;9.13;;;;;;;12.23;77.41;100724.22;5014271;28;20049;-64
2021/10/07 02:13:48;;;;;;;13.55;9.23;;;;;;;12.24;77.27;100723.34;5012805;28;20053;-64
2021/10/07 02:16:36;;;;;;;12.93;8.30;;;;;;;12.24;77.73;100720.75;5013268;28;20049;-64
2021/10/07 02:19:21;;;;;;;8.60;7.70;;;;;;;12.24;77.29;100716.47;5013306;28;20108;-64
2021/10/07 02:22:13;;;;;;;10.20;8.05;;;;;;;12.24;77.58;100721.66;5014029;28;20088;-64
2021/10/07 02:25:03;;;;;;;10.00;7.40;;;;;;;12.25;77.38;100712.13;5014094;28;20044;-64
2021/10/07 02:27:53;;;;;;;11.30;7.82;;;;;;;12.25;77.14;100725.13;5012753;28;20420;-64
2021/10/07 02:30:43;;;;;;;9.35;7.22;;;;;;;12.24;77.54;100721.66;5013442;28;20107;-64
2021/10/07 02:33:36;;;;;;;8.70;7.80;;;;;;;12.25;77.42;100717.31;5013390;28;20531;-64
2021/10/07 02:36:28;;;;;;;11.20;7.30;;;;;;;12.25;77.63;100718.22;5013628;28;20088;-64
2021/10/07 02:39:18;;;;;;;8.25;7.15;;;;;;;12.25;77.70;100718.22;5012425;28;20084;-64
2021/10/07 02:42:02;;;;;;;8.52;6.40;;;;;;;12.24;77.39;100721.66;5013033;28;20099;-64
2021/10/07 02:44:46;;;;;;;;;;;;;;;12.24;77.65;100718.16;5014321;28;20053;-64
2021/10/07 02:47:37;;;;;;;6.90;6.20;;;;;;;12.23;77.71;100719.91;5013486;28;19920;-64
2021/10/07 02:50:30;;;;;;;7.03;5.50;;;;;;;12.24;77.69;100725.97;5012628;28;20049;-64
2021/10/07 02:53:21;;;;;;;8.98;6.30;;;;;;;12.25;77.58;100723.41;5013709;28;20053;-63
2021/10/07 02:56:06;;;;;;;8.98;5.72;;;;;;;12.25;77.16;100727.72;5013023;28;20468;-64
2021/10/07 02:58:59;;;;;;;;;;;;;;;12.25;77.46;100730.31;5018384;28;20084;-64
2021/10/07 03:01:51;;;;;;;5.43;4.93;;;;;;;12.25;77.84;100730.31;5017329;28;20352;-64
2021/10/07 03:04:36;;;;;;;6.78;5.32;;;;;;;12.24;77.23;100737.25;5016854;28;20104;-64
2021/10/07 03:07:20;;;;;;;7.47;5.47;;;;;;;12.26;77.69;100735.56;5017189;28;20056;-64
2021/10/07 03:10:04;;;;;;;7.22;5.07;;;;;;;12.28;77.57;100745.97;5016274;28;20052;-65
2021/10/07 03:12:48;;;;;;;;;;;;;;;12.27;77.43;100744.22;5018053;28;20188;-63
2021/10/07 03:15:40;;;;;;;5.47;4.97;;;;;;;12.27;77.76;100752.00;5017124;28;20345;-62
2021/10/07 03:18:27;;;;;;;6.57;4.93;;;;;;;12.29;77.76;100745.13;5016348;28;20575;-62
2021/10/07 03:21:20;;;;;;;6.13;4.88;;;;;;;12.30;77.51;100752.09;5016550;28;20100;-63
2021/10/07 03:24:10;;;;;;;5.65;4.22;;;;;;;12.31;77.52;100753.84;5016252;28;20069;-64
2021/10/07 03:26:58;;;;;;;6.20;5.10;;;;;;;12.30;77.56;100752.94;5016305;28;20085;-63
2021/10/07 03:29:53;;;;;;;5.60;4.63;;;;;;;12.32;77.96;100763.41;5015603;28;20049;-64
2021/10/07 03:32:46;;;;;;;5.78;4.32;;;;;;;12.31;77.52;100759.91;5016724;28;20056;-64
2021/10/07 03:35:38;;;;;;;6.50;4.68;;;;;;;12.32;77.86;100761.66;5015691;28;20045;-64
2021/10/07 03:38:29;;;;;;;5.25;4.35;;;;;;;12.32;77.62;100759.06;5016455;28;20049;-62
2021/10/07 03:41:16;;;;;;;7.30;5.18;;;;;;;12.33;77.60;100771.22;5016527;28;20049;-63
2021/10/07 03:44:06;;;;;;;7.20;5.40;;;;;;;12.31;77.61;100770.28;5016575;28;20052;-62
2021/10/07 03:46:58;;;;;;;6.97;5.00;;;;;;;12.33;77.76;100772.94;5015796;28;20049;-64
2021/10/07 03:49:55;;;;;;;7.53;5.30;;;;;;;12.31;77.97;100779.84;5016269;28;20052;-65
2021/10/07 03:52:49;;;;;;;6.22;5.10;;;;;;;12.33;77.84;100779.00;5015397;28;20118;-64
2021/10/07 03:55:38;;;;;;;8.00;5.63;;;;;;;12.33;77.73;100779.00;5015516;28;20057;-64
2021/10/07 03:58:34;;;;;;;7.15;5.47;;;;;;;12.33;78.33;100785.94;5015503;28;20049;-65
2021/10/07 04:01:23;;;;;;;8.68;6.28;;;;;;;12.33;77.83;100789.41;5015708;28;20049;-64
2021/10/07 04:04:13;;;;;;;7.78;5.88;;;;;;;12.33;78.05;100793.75;5016592;28;20123;-63
2021/10/07 04:06:57;;;;;;;11.30;6.85;;;;;;;12.33;77.88;100796.34;5015205;28;20136;-63
2021/10/07 04:09:51;;;;;;;10.23;7.30;;;;;;;12.33;77.93;100797.19;5016194;28;20045;-63
2021/10/07 04:12:44;;;;;;;11.18;7.07;;;;;;;12.33;77.99;100799.81;5016447;28;20137;-63
2021/10/07 04:15:39;;;;;;;9.68;7.38;;;;;;;12.32;78.05;100797.19;5015367;28;20041;-63
2021/10/07 04:18:32;;;;;;;13.32;8.52;;;;;;;12.34;77.76;100803.28;5015014;28;20478;-63
2021/10/07 04:21:21;;;;;;;13.23;8.60;;;;;;;12.33;77.99;100806.75;5015797;28;20049;-63
2021/10/07 04:24:08;;;;;;;19.88;7.50;;;;;;;12.34;77.75;100809.34;5014850;28;20532;-62
2021/10/07 04:26:56;;;;;;;10.70;7.82;;;;;;;12.34;77.97;100805.91;5016183;28;20112;-63
2021/10/07 04:29:45;;;;;;;16.00;7.97;;;;;;;12.34;78.07;100808.50;5014725;28;20456;-63
2021/10/07 04:32:29;;;;;;;12.27;7.93;;;;;;;12.34;78.01;100814.56;5014755;28;20040;-63
2021/10/07 04:35:13;;;;;;;11.93;7.65;;;;;;;12.33;77.93;100807.59;5014889;28;20088;-63
2021/10/07 04:37:58;;;;;;;;;;;;;;;12.33;78.31;100820.59;5015195;28;20072;-62
2021/10/07 04:40:48;;;;;;;13.20;8.32;;;;;;;12.33;78.25;100822.34;5015504;28;19936;-62
2021/10/07 04:43:32;;;;;;;13.90;8.13;;;;;;;12.32;78.10;100825.78;5014852;28;20115;-62
2021/10/07 04:46:27;;;;;;;11.15;8.05;;;;;;;12.33;78.24;100827.53;5015565;28;20091;-63
2021/10/07 04:49:17;;;;;;;11.10;8.80;;;;;;;12.33;78.12;100828.38;5015009;28;20061;-62
2021/10/07 04:52:04;;;;;;;15.57;8.95;;;;;;;12.34;78.00;100827.56;5014457;28;20044;-63
2021/10/07 04:54:54;;;;;;;13.50;7.95;;;;;;;12.34;78.11;100827.56;5014331;28;20092;-63
2021/10/07 04:57:46;;;;;;;10.27;7.22;;;;;;;12.34;78.33;100826.69;5014655;28;20127;-63
2021/10/07 05:00:30;;;;;;;11.55;8.20;;;;;;;12.33;78.53;100835.31;5014531;28;20168;-63
2021/10/07 05:03:20;;;;;;;12.15;7.72;;;;;;;12.34;78.42;100831.88;5015376;28;20196;-63
2021/10/07 05:06:10;;;;;;;11.43;8.07;;;;;;;12.34;78.21;100826.69;5014090;28;20104;-63
2021/10/07 05:08:57;;;;;;;8.75;7.55;;;;;;;12.34;78.24;100827.56;5014238;28;20045;-63
2021/10/07 05:11:49;;;;;;;11.80;7.22;;;;;;;12.35;78.28;100836.25;5014141;28;20401;-63
2021/10/07 05:14:39;;;;;;;13.52;8.52;;;;;;;12.34;78.35;100840.53;5014172;28;20104;-63
2021/10/07 05:17:28;;;;;;;10.55;8.00;;;;;;;12.36;78.07;100844.91;5014761;28;20049;-63
2021/10/07 05:20:21;;;;;;;10.65;8.45;;;;;;;12.35;78.34;100836.25;5014424;28;20057;-62
2021/10/07 05:23:15;;;;;;;12.85;8.20;;;;;;;12.35;78.15;100838.84;5013501;28;20084;-63
2021/10/07 05:26:00;;;;;;;16.83;8.70;;;;;;;12.34;78.33;100843.16;5013874;28;20056;-62
2021/10/07 05:28:44;;;;;;;16.88;9.52;;;;;;;12.34;78.13;100848.34;5013614;28;20053;-62
2021/10/07 05:31:31;;;;;;;15.70;8.73;;;;;;;12.34;78.33;100855.28;5013927;28;20053;-62
2021/10/07 05:34:19;;;;;;;19.00;11.35;;;;;;;12.31;78.33;100856.06;5013250;28;20124;-63
2021/10/07 05:37:14;;;;;;;18.80;10.30;;;;;;;12.34;78.22;100855.28;5013540;28;20053;-63
2021/10/07 05:40:02;;;;;;;19.02;10.32;;;;;;;12.34;78.42;100863.06;5014700;28;20048;-62
2021/10/07 05:42:55;;;;;;;15.70;9.25;;;;;;;12.34;78.32;100866.53;5013629;28;20100;-63
2021/10/07 05:45:50;;;;;;;24.30;9.77;;;;;;;12.34;78.47;100865.69;5014085;28;20421;-63
2021/10/07 05:48:40;;;;;;;17.70;9.55;;;;;;;12.34;78.20;100873.47;5014271;28;20524;-63
2021/10/07 05:51:29;;;;;;;24.10;11.15;;;;;;;12.34;78.04;100869.13;5013484;28;20045;-62
2021/10/07 05:54:13;;;;;;;20.98;10.82;;;;;;;12.33;78.22;100867.38;5013296;28;20048;-62
2021/10/07 05:57:05;;;;;;;25.23;11.38;;;;;;;12.34;78.40;100863.06;5014040;28;20429;-62
2021/10/07 06:00:00;;;;;;;16.10;10.20;;;;;;;12.34;78.53;100869.13;5014623;28;20114;-62
2021/10/07 06:02:49;;;;;;;20.75;10.40;;;;;;;12.35;78.23;100877.84;5013016;28;20406;-62
2021/10/07 06:05:44;;;;;;;22.55;10.80;;;;;;;12.34;78.32;100879.53;5013903;28;20046;-63
2021/10/07 06:08:43;;;;;;;18.30;10.85;;;;;;;12.34;78.28;100878.66;5013981;28;20425;-62
2021/10/07 06:11:36;;;;;;;16.77;9.95;;;;;;;12.34;78.60;100882.13;5013832;28;20133;-63
2021/10/07 06:14:29;;;;;;;22.33;10.15;;;;;;;12.35;78.29;100880.44;5014107;28;20061;-63
2021/10/07 06:17:14;;;;;;;14.88;9.15;;;;;;;12.36;78.17;100881.28;5014310;28;20052;-62
2021/10/07 06:20:07;;;;;;;18.80;10.05;;;;;;;12.34;78.45;100892.53;5013797;28;20049;-62
2021/10/07 06:23:08;;;;;;;18.70;10.40;;;;;;;12.36;78.22;100896.88;5014208;28;20052;-62
2021/10/07 06:25:55;;;;;;;18.80;10.68;;;;;;;12.34;78.44;100904.66;5013158;28;20488;-62
2021/10/07 06:28:42;;;;;;;20.15;10.20;;;;;;;12.34;78.21;100897.72;5013841;28;20084;-62
2021/10/07 06:31:26;;;;;;;18.88;10.25;;;;;;;12.36;78.64;100895.19;5012395;28;20049;-63
2021/10/07 06:34:10;;;;;;;19.50;9.65;;;;;;;12.36;78.41;100907.28;5013945;28;20406;-64
2021/10/07 06:36:54;;;;;;;19.75;10.43;;;;;;;12.35;78.20;100901.22;5013770;28;20047;-64
2021/10/07 06:39:38;;;;;;;13.45;9.63;;;;;;;12.36;78.36;100909.88;5014034;28;20053;-65
2021/10/07 06:42:22;;;;;;;18.40;9.57;;;;;;;12.36;78.57;100913.38;5013782;28;20088;-64
2021/10/07 06:45:07;;;;;;;18.48;10.25;;;;;;;12.36;78.17;100921.19;5013426;28;20096;-65
2021/10/07 06:47:52;;;;;;;18.20;10.55;;;;;;;12.36;78.27;100921.19;5013865;28;20045;-64
2021/10/07 06:50:40;;;;;;;16.30;10.57;;;;;;;12.36;78.55;100926.38;5012737;28;20619;-64
2021/10/07 06:53:24;;;;;;;18.48;10.35;;;;;;;12.36;78.42;100933.28;5013012;28;20053;-64
2021/10/07 06:56:16;;;;;;;22.27;9.85;;;;;;;12.36;78.66;100935.88;5013769;28;20472;-64
2021/10/07 06:59:00;;;;;;;18.02;9.38;;;;;;;12.36;78.14;100939.38;5013034;28;20141;-63
2021/10/07 07:01:47;;;;;;;24.30;12.57;;;;;;;12.37;78.37;100941.13;5013857;28;20060;-62
2021/10/07 07:04:31;;;;;;;20.48;11.23;;;;;;;12.35;78.20;100945.41;5012408;28;20040;-63
2021/10/07 07:07:15;;;;;;;19.20;11.15;;;;;;;12.37;78.29;100950.63;5013503;28;20082;-64
2021/10/07 07:09:59;;;;;;;20.52;11.32;;;;;;;12.37;78.16;100948.94;5013038;28;20143;-64
2021/10/07 07:12:45;;;;;;;21.58;10.93;;;;;;;12.37;78.36;100953.25;5012914;28;20505;-64
2021/10/07 07:15:29;;;;;;;19.42;11.57;;;;;;;12.37;78.64;100955.84;5012737;28;20461;-64
2021/10/07 07:18:14;;;;;;;18.45;11.10;;;;;;;12.36;78.42;100959.28;5013759;28;20092;-65
2021/10/07 07:20:58;;;;;;;21.20;13.07;;;;;;;12.37;78.52;100958.44;5012927;28;20049;-64
2021/10/07 07:23:43;;;;;;;25.95;11.98;;;;;;;12.36;78.36;100954.97;5012953;28;20052;-65
2021/10/07 07:26:28;;;;;;;22.00;11.52;;;;;;;12.38;78.32;100963.66;5013345;28;20049;-64
2021/10/07 07:29:13;;;;;;;23.08;12.55;;;;;;;12.38;78.33;100968.00;5012267;28;20049;-64
2021/10/07 07:31:57;;;;;;;23.70;12.65;;;;;;;12.38;78.30;100970.59;5013313;28;20412;-64
2021/10/07 07:34:41;;;;;;;22.08;12.13;;;;;;;12.38;78.63;100974.06;5013597;28;20052;-64
2021/10/07 07:37:26;;;;;;;;;;;;;;;12.38;78.40;100970.59;5013812;28;20057;-64
2021/10/07 07:40:10;;;;;;;23.83;12.50;;;;;;;12.37;78.42;100972.31;5013531;28;19920;-64
2021/10/07 07:42:54;;;;;;;24.50;14.30;;;;;;;12.37;78.86;100974.94;5014791;28;20532;-64
2021/10/07 07:45:38;;;;;;;24.20;13.52;;;;;;;12.37;78.74;100972.31;5016878;28;20088;-64
2021/10/07 07:48:22;;;;;;;20.63;13.15;;;;;;;12.37;78.60;100982.72;5016717;28;20516;-64
2021/10/07 07:51:06;;;;;;;22.27;14.88;;;;;;;12.38;78.39;100984.44;5016916;28;20096;-64
2021/10/07 07:53:53;;;;;;;23.10;13.85;;;;;;;12.38;78.65;100983.59;5016822;28;20584;-64
2021/10/07 07:56:37;;;;;;;22.27;13.27;;;;;;;12.38;78.43;100991.38;5016324;28;20065;-64
2021/10/07 07:59:21;;;;;;;23.42;13.07;;;;;;;12.39;78.70;100990.53;5015933;28;20172;-64
2021/10/07 08:02:05;;;;;;;21.65;12.50;;;;;;;12.39;78.73;100987.94;5016208;28;20061;-64
2021/10/07 08:04:51;;;;;;;;;;;;;;;12.38;78.55;100986.19;5016650;28;20044;-64
2021/10/07 08:07:35;;;;;;;20.70;12.70;;;;;;;12.37;78.34;100995.72;5016069;28;19928;-64
2021/10/07 08:10:19;;;;;;;27.30;13.00;;;;;;;12.37;78.56;100993.13;5015316;28;20096;-64
2021/10/07 08:13:03;;;;;;;;;;;;;;;12.37;78.87;100989.63;5016674;28;20050;-64
2021/10/07 08:15:50;;;;;;;22.13;12.93;;;;;;;12.38;78.54;101001.78;5014832;28;19999;-64
2021/10/07 08:18:34;;;;;;;24.73;13.93;;;;;;;12.37;78.66;101000.03;5015292;28;20405;-64
2021/10/07 08:21:18;;;;;;;25.35;13.85;;;;;;;12.37;78.71;100995.72;5015987;28;20072;-64
2021/10/07 08:24:07;;;;;;;18.80;12.65;;;;;;;12.38;78.57;100999.19;5015452;28;20406;-64
2021/10/07 08:26:51;;;;;;;19.30;12.32;;;;;;;12.38;78.68;100997.44;5016790;28;20053;-64
2021/10/07 08:29:35;;;;;;;21.80;13.98;;;;;;;12.38;78.87;101002.66;5016027;28;20100;-64
2021/10/07 08:32:19;;;;;;;23.17;12.10;;;;;;;12.40;78.81;101002.72;5015738;28;20531;-64
2021/10/07 08:35:04;;;;;;;;;;;;;;;12.37;78.94;101003.53;5016511;28;20056;-64
2021/10/07 08:37:49;;;;;;;20.70;13.75;;;;;;;12.38;79.10;101009.59;5015190;28;19921;-64
2021/10/07 08:40:32;;;;;;;27.08;14.52;;;;;;;12.40;79.06;101008.78;5015215;28;20049;-64
2021/10/07 08:43:16;;;;;;;27.83;14.52;;;;;;;12.40;78.99;101011.38;5015982;28;20084;-64
2021/10/07 08:46:09;;;;;;;24.60;14.32;;;;;;;12.40;79.25;101013.09;5014841;28;20092;-64
2021/10/07 08:48:53;;;;;;;24.90;14.90;;;;;;;12.41;79.14;101020.94;5014656;28;20093;-64
2021/10/07 08:51:37;;;;;;;;;;;;;;;12.39;78.84;101020.00;5014530;28;20484;-64
2021/10/07 08:54:21;;;;;;;23.92;14.27;;;;;;;12.39;79.03;101025.22;5015787;28;20019;-64
2021/10/07 08:57:06;;;;;;;;;;;;;;;12.40;79.10;101032.16;5015772;28;20056;-64
2021/10/07 08:59:50;;;;;;;24.20;13.13;;;;;;;12.39;78.80;101025.22;5015420;28;19920;-64
2021/10/07 09:02:34;;;;;;;23.45;14.57;;;;;;;12.40;78.90;101042.56;5014501;28;20057;-64
2021/10/07 09:05:22;;;;;;;21.38;12.60;;;;;;;12.41;79.21;101035.66;5015112;28;20523;-64
2021/10/07 09:08:13;;;;;;;21.15;12.85;;;;;;;12.41;78.79;101040.88;5014406;28;20520;-64
2021/10/07 09:10:57;;;;;;;25.48;13.07;;;;;;;12.42;78.87;101038.28;5014140;28;20094;-64
2021/10/07 09:13:41;;;;;;;20.60;12.43;;;;;;;12.43;78.64;101039.19;5015483;28;20107;-64
2021/10/07 09:16:29;;;;;;;19.23;12.32;;;;;;;12.42;78.92;101035.69;5014493;28;20096;-64
2021/10/07 09:19:21;;;;;;;23.45;13.68;;;;;;;12.45;78.68;101027.09;5014198;28;20066;-64
2021/10/07 09:22:12;;;;;;;21.58;12.15;;;;;;;12.45;78.89;101027.09;5015179;28;20651;-64
2021/10/07 09:24:58;;;;;;;21.70;12.70;;;;;;;12.46;78.63;101026.22;5014529;28;20052;-64
2021/10/07 09:27:42;;;;;;;24.08;13.02;;;;;;;12.47;78.65;101026.28;5013692;28;20053;-64
2021/10/07 09:30:26;;;;;;;22.98;14.15;;;;;;;12.47;78.54;101026.28;5014827;28;20085;-64
2021/10/07 09:33:10;;;;;;;18.73;13.07;;;;;;;12.49;78.75;101027.22;5014464;28;20167;-64
2021/10/07 09:36:13;;;;;;;18.65;12.52;;;;;;;12.50;78.54;101033.28;5014736;28;20061;-64
2021/10/07 09:38:58;;;;;;;18.88;11.00;;;;;;;12.52;78.46;101042.00;5013730;28;20048;-64
2021/10/07 09:41:42;;;;;;;19.77;13.38;;;;;;;12.52;78.44;101030.72;5014183;28;20469;-64
2021/10/07 09:44:26;;;;;;;19.67;12.18;;;;;;;12.55;78.59;101035.97;5014189;28;20049;-64
2021/10/07 09:47:10;;;;;;;15.48;11.48;;;;;;;12.55;78.46;101038.56;5014477;28;20049;-64
2021/10/07 09:50:12;;;;;;;23.58;12.80;;;;;;;12.56;78.83;101040.34;5013610;28;20113;-64
2021/10/07 09:53:12;;;;;;;22.08;13.23;;;;;;;12.57;78.58;101035.19;5014160;28;20044;-64
2021/10/07 09:55:58;;;;;;;18.17;12.73;;;;;;;12.57;78.34;101035.19;5013349;28;20050;-64
2021/10/07 09:58:44;;;;;;;23.05;12.75;;;;;;;12.58;78.59;101039.56;5014151;28;20563;-64
2021/10/07 10:01:28;;;;;;;22.80;13.55;;;;;;;12.60;78.36;101032.66;5014089;28;20208;-64
2021/10/07 10:04:12;;;;;;;19.65;13.10;;;;;;;12.61;78.38;101034.41;5013293;28;20084;-64
2021/10/07 10:06:57;;;;;;;;;;;;;;;12.59;78.49;101027.41;5013993;28;20574;-64
2021/10/07 10:09:41;;;;;;;19.95;12.50;;;;;;;12.61;78.56;101031.78;5014208;28;20403;-64
2021/10/07 10:12:25;;;;;;;;;;;;;;;12.63;78.26;101031.84;5014921;28;20100;-64
2021/10/07 10:15:10;;;;;;;;;;;;;;;12.62;78.35;101030.94;5013934;28;19921;-64
2021/10/07 10:17:53;;;;;;;;;;;;;;;12.64;78.30;101036.22;5014374;28;19924;-64
2021/10/07 10:20:42;;;;;;;;;;;;;;;12.66;78.30;101037.13;5014273;28;19921;-64
2021/10/07 10:23:30;;;;;;;;;;;;;;;12.68;78.42;101032.84;5013342;28;20403;-64
2021/10/07 10:26:14;;;;;;;;;;;;;;;12.71;78.62;101037.22;5013751;28;20491;-64
2021/10/07 10:28:58;;;;;;;;;;;;;;;12.73;78.33;101035.53;5014227;28;20032;-64
2021/10/07 10:31:42;;;;;;;;;;;;;;;12.74;78.19;101032.97;5013306;28;19925;-64
2021/10/07 10:34:26;;;;;;;;;;;;;;;12.76;78.35;101025.22;5013789;28;19928;-64
2021/10/07 10:37:10;;;;;;;;;;;;;;;12.77;78.30;101027.84;5014465;28;19988;-64
2021/10/07 10:40:08;;;;;;;;;;;;;;;12.78;78.02;101029.59;5014181;28;19964;-64
2021/10/07 10:43:10;;;;;;;;;;;;;;;12.81;78.05;101041.78;5014052;28;19924;-64
2021/10/07 10:45:57;;;;;;;;;;;;;;;12.81;77.96;101040.94;5013792;28;19975;-64
2021/10/07 10:48:41;;;;;;;;;;;;;;;12.83;78.01;101044.44;5013987;28;20396;-64
2021/10/07 10:51:30;;;;;;;;;;;;;;;12.82;78.18;101047.88;5014167;28;19927;-64
2021/10/07 10:54:15;;;;;;;;;;;;;;;12.81;78.06;101044.38;5013920;28;19924;-64
2021/10/07 10:57:00;;;;;;;;;;;;;;;12.80;77.95;101050.44;5013621;28;20019;-64
2021/10/07 11:00:11;;;;;;;;;;;;;;;12.81;77.94;101051.31;5013829;28;20397;-64
2021/10/07 11:03:14;;;;;;;;;;;;;;;12.81;77.94;101053.94;5012466;28;20324;-64
2021/10/07 11:06:00;;;;;;;;;;;;;;;12.78;77.83;101047.81;5013367;28;19923;-64
2021/10/07 11:08:45;;;;;;;;;;;;;;;12.79;78.20;101046.97;5012998;28;19993;-64
2021/10/07 11:11:35;;;;;;;;;;;;;;;12.79;77.96;101046.06;5013800;28;20336;-64
2021/10/07 11:14:23;;;;;;;;;;;;;;;12.79;78.15;101049.56;5012709;28;19924;-64
2021/10/07 11:17:08;;;;;;;;;;;;;;;12.81;77.71;101047.00;5013118;28;19940;-64
2021/10/07 11:19:52;;;;;;;;;;;;;;;12.82;77.99;101051.34;5017203;28;20368;-64
2021/10/07 11:22:36;;;;;;;;;;;;;;;12.83;77.64;101047.03;5017956;28;19947;-64
2021/10/07 11:25:20;;;;;;;;;;;;;;;12.85;77.87;101047.94;5017450;28;20008;-64
2021/10/07 11:28:04;;;;;;;;;;;;;;;12.86;77.69;101042.78;5017174;28;19925;-64
2021/10/07 11:30:48;;;;;;;;;;;;;;;12.88;77.93;101042.81;5017016;28;19964;-63
2021/10/07 11:33:32;;;;;;;;;;;;;;;12.88;77.59;101041.09;5017008;28;19925;-64
2021/10/07 11:36:27;;;;;;;;;;;;;;;12.93;77.66;101041.19;5017060;28;19963;-64
2021/10/07 11:39:11;;;;;;;;;;;;;;;12.96;77.80;101041.28;5016455;28;19967;-63
2021/10/07 11:41:55;;;;;;;;;;;;;;;12.99;77.52;101046.53;5017258;28;20296;-64
2021/10/07 11:44:45;;;;;;;;;;;;;;;13.01;77.28;101046.56;5017331;28;19924;-63
2021/10/07 11:47:31;;;;;;;;;;;;;;;13.03;77.62;101044.88;5016725;28;19928;-64
2021/10/07 11:50:16;;;;;;;;;;;;;;;13.03;77.46;101045.75;5016814;28;19924;-64
2021/10/07 11:53:00;;;;;;;;;;;;;;;13.04;77.38;101044.03;5016936;28;19924;-64
2021/10/07 11:55:45;;;;;;;;;;;;;;;13.06;77.45;101053.63;5016937;28;19932;-64
2021/10/07 11:58:30;;;;;;;;;;;;;;;13.08;77.71;101056.25;5016600;28;19940;-64
2021/10/07 12:01:17;;;;;;;;;;;;;;;13.07;77.57;101051.91;5016249;28;19948;-63
2021/10/07 12:04:03;;;;;;;;;;;;;;;13.07;77.40;101060.59;5015736;28;20399;-64
2021/10/07 12:06:50;;;;;;;;;;;;;;;13.06;77.51;101056.22;5017075;28;19964;-64
2021/10/07 12:09:40;;;;;;;;;;;;;;;13.05;77.38;101056.22;5016825;28;19924;-65
2021/10/07 12:12:24;;;;;;;;;;;;;;;13.04;77.59;101057.91;5017027;28;19923;-64
2021/10/07 12:15:14;;;;;;;;;;;;;;;13.03;77.45;101057.88;5016879;28;19991;-65
2021/10/07 12:17:58;;;;;;;;;;;;;;;13.03;77.52;101057.88;5015434;28;19967;-65
2021/10/07 12:21:02;;;;;;;;;;;;;;;13.01;77.40;101056.97;5016133;28;20400;-65
2021/10/07 12:23:48;;;;;;;;;;;;;;;13.03;77.56;101057.88;5015551;28;20033;-64
2021/10/07 12:26:43;;;;;;;;;;;;;;;13.03;77.64;101058.75;5016758;28;19964;-64
2021/10/07 12:29:32;;;;;;;;;;;;;;;13.03;77.47;101050.09;5014790;28;19925;-64
2021/10/07 12:32:16;;;;;;;;;;;;;;;13.03;77.32;101045.75;5015635;28;20403;-63
2021/10/07 12:35:01;;;;;;;;;;;;;;;13.02;77.37;101043.97;5016774;28;19987;-64
2021/10/07 12:37:55;;;;;;;;;;;;;;;13.03;77.42;101050.09;5016130;28;20349;-62
2021/10/07 12:40:40;;;;;;;;;;;;;;;13.02;77.35;101057.00;5016455;28;19924;-64
2021/10/07 12:43:25;;;;;;;;;;;;;;;13.03;77.30;101052.69;5015163;28;19923;-62
2021/10/07 12:46:11;;;;;;;;;;;;;;;13.03;77.21;101053.56;5015776;28;19940;-62
2021/10/07 12:48:59;;;;;;;;;;;;;;;13.03;77.42;101056.16;5015126;28;20320;-64
2021/10/07 12:51:45;;;;;;;;;;;;;;;13.04;77.42;101054.44;5015705;28;19925;-62
2021/10/07 12:54:29;;;;;;;;;;;;;;;13.05;77.27;101053.59;5015124;28;19983;-63
2021/10/07 12:57:32;;;;;;;;;;;;;;;13.05;77.11;101056.22;5015459;28;20392;-62
2021/10/07 13:00:28;;;;;;;;;;;;;;;13.06;77.14;101064.03;5014527;28;19967;-62
2021/10/07 13:03:15;;;;;;;;;;;;;;;13.08;77.25;101056.25;5016144;28;19967;-62
2021/10/07 13:05:59;;;;;;;;;;;;;;;13.09;77.23;101063.22;5015386;28;19923;-62
2021/10/07 13:08:43;;;;;;;;;;;;;;;13.10;77.40;101058.06;5016017;28;20008;-62
2021/10/07 13:11:27;;;;;;;;;;;;;;;13.10;77.36;101054.56;5014642;28;19932;-62
2021/10/07 13:14:14;;;;;;;;;;;;;;;13.11;77.14;101056.31;5015836;28;19956;-63
2021/10/07 13:16:58;;;;;;;;;;;;;;;13.13;77.05;101056.38;5014457;28;19970;-62
2021/10/07 13:19:42;;;;;;;;;;;;;;;13.14;77.19;101058.13;5015305;28;19923;-63